createdAt,value
2023-05-14T00:01:31.691Z,12.73
2023-05-14T00:03:58.714Z,9.30
2023-05-14T00:06:25.761Z,10.30
2023-05-14T00:08:52.492Z,9.45
2023-05-14T00:11:19.523Z,8.85
2023-05-14T00:13:46.287Z,8.38
2023-05-14T00:16:13.134Z,9.73
2023-05-14T00:18:39.901Z,13.15
2023-05-14T00:21:06.664Z,8.55
2023-05-14T00:23:33.461Z,10.85
2023-05-14T00:26:00.169Z,8.70
2023-05-14T00:28:26.880Z,8.90
2023-05-14T00:30:53.699Z,9.15
2023-05-14T00:33:20.507Z,8.55
2023-05-14T00:35:47.237Z,8.80
2023-05-14T00:38:17.655Z,10.63
2023-05-14T00:40:45.982Z,13.32
2023-05-14T00:43:12.699Z,10.55
2023-05-14T00:45:39.474Z,10.80
2023-05-14T00:48:06.326Z,10.60
2023-05-14T00:50:34.624Z,11.32
2023-05-14T00:53:01.462Z,12.73
2023-05-14T00:55:30.757Z,10.80
2023-05-14T00:57:58.916Z,11.45
2023-05-14T01:00:26.070Z,12.13
2023-05-14T01:02:53.034Z,10.98
2023-05-14T01:05:20.101Z,12.23
2023-05-14T01:08:06.877Z,12.48
2023-05-14T01:11:20.327Z,12.60
2023-05-14T01:14:25.695Z,11.85
2023-05-14T01:16:55.782Z,13.50
2023-05-14T01:19:33.459Z,12.30
2023-05-14T01:22:00.215Z,14.32
2023-05-14T01:24:27.008Z,13.02
2023-05-14T01:26:58.664Z,12.35
2023-05-14T01:29:29.013Z,15.48
2023-05-14T01:31:58.633Z,13.93
2023-05-14T01:34:28.374Z,15.63
2023-05-14T01:36:56.750Z,15.85
2023-05-14T01:39:24.980Z,14.98
2023-05-14T01:41:52.694Z,15.85
2023-05-14T01:44:20.286Z,15.43
2023-05-14T01:46:47.088Z,14.52
2023-05-14T01:49:13.864Z,16.80
2023-05-14T01:51:40.582Z,14.88
2023-05-14T01:54:07.327Z,16.33
2023-05-14T01:56:34.063Z,18.55
2023-05-14T01:59:00.847Z,15.95
2023-05-14T02:01:27.698Z,15.18
2023-05-14T02:03:54.507Z,18.95
2023-05-14T02:06:21.190Z,17.05
2023-05-14T02:08:47.945Z,16.08
2023-05-14T02:11:14.656Z,15.18
2023-05-14T02:13:41.410Z,14.60
2023-05-14T02:16:08.402Z,15.55
2023-05-14T02:18:35.361Z,15.68
2023-05-14T02:21:02.190Z,18.65
2023-05-14T02:23:40.588Z,15.48
2023-05-14T02:26:09.887Z,18.55
2023-05-14T02:28:36.635Z,15.88
2023-05-14T02:31:03.634Z,15.77
2023-05-14T02:33:30.559Z,17.10
2023-05-14T02:35:57.319Z,17.85
2023-05-14T02:38:24.224Z,15.40
2023-05-14T02:40:50.999Z,17.02
2023-05-14T02:43:17.710Z,17.38
2023-05-14T02:45:44.545Z,14.95
2023-05-14T02:48:11.341Z,16.10
2023-05-14T02:51:01.084Z,13.93
2023-05-14T02:53:27.840Z,15.38
2023-05-14T02:55:54.574Z,15.07
2023-05-14T02:58:26.168Z,17.00
2023-05-14T03:00:55.684Z,14.40
2023-05-14T03:03:23.024Z,15.82
2023-05-14T03:05:50.202Z,15.20
2023-05-14T03:08:16.929Z,16.85
2023-05-14T03:10:43.620Z,14.30
2023-05-14T03:13:10.506Z,14.80
2023-05-14T03:15:37.200Z,13.35
2023-05-14T03:18:04.021Z,15.25
2023-05-14T03:20:30.732Z,17.92
2023-05-14T03:22:57.460Z,14.13
2023-05-14T03:25:24.221Z,15.73
2023-05-14T03:27:50.932Z,16.55
2023-05-14T03:30:17.727Z,16.67
2023-05-14T03:32:45.092Z,15.63
2023-05-14T03:35:11.819Z,17.00
2023-05-14T03:37:38.555Z,15.18
2023-05-14T03:40:05.985Z,18.20
2023-05-14T03:42:32.733Z,18.27
2023-05-14T03:44:59.502Z,17.58
2023-05-14T03:47:26.217Z,17.52
2023-05-14T03:49:53.146Z,18.55
2023-05-14T03:52:19.919Z,17.83
2023-05-14T03:54:46.670Z,20.08
2023-05-14T03:57:13.380Z,20.10
2023-05-14T03:59:40.108Z,21.35
2023-05-14T04:02:07.228Z,21.48
2023-05-14T04:04:34.059Z,20.58
2023-05-14T04:07:00.810Z,21.20
2023-05-14T04:09:27.568Z,20.67
2023-05-14T04:11:54.308Z,26.05
2023-05-14T04:14:21.046Z,25.05
2023-05-14T04:16:47.793Z,28.33
2023-05-14T04:19:14.566Z,27.88
2023-05-14T04:21:41.376Z,22.70
2023-05-14T04:24:08.288Z,22.75
2023-05-14T04:26:35.358Z,27.35
2023-05-14T04:29:03.441Z,22.55
2023-05-14T04:31:31.650Z,24.05
2023-05-14T04:33:58.644Z,24.23
2023-05-14T04:36:25.379Z,25.58
2023-05-14T04:38:52.095Z,20.90
2023-05-14T04:41:18.832Z,26.88
2023-05-14T04:43:46.843Z,26.67
2023-05-14T04:46:13.984Z,25.83
2023-05-14T04:48:41.003Z,27.00
2023-05-14T04:51:07.924Z,30.15
2023-05-14T04:53:34.595Z,23.60
2023-05-14T04:56:01.280Z,27.52
2023-05-14T04:58:29.223Z,26.67
2023-05-14T05:00:55.993Z,29.08
2023-05-14T05:03:22.789Z,27.00
2023-05-14T05:05:49.626Z,26.45
2023-05-14T05:08:16.512Z,26.75
2023-05-14T05:10:43.203Z,32.80
2023-05-14T05:13:09.917Z,26.48
2023-05-14T05:15:36.702Z,26.50
2023-05-14T05:18:03.654Z,27.33
2023-05-14T05:20:31.038Z,31.02
2023-05-14T05:22:57.764Z,26.27
2023-05-14T05:25:24.443Z,27.35
2023-05-14T05:27:51.234Z,24.83
2023-05-14T05:30:18.059Z,25.77
2023-05-14T05:32:44.994Z,24.55
2023-05-14T05:35:11.719Z,24.10
2023-05-14T05:37:38.439Z,25.98
2023-05-14T05:40:06.325Z,28.77
2023-05-14T05:42:32.997Z,24.13
2023-05-14T05:44:59.721Z,26.85
2023-05-14T05:47:26.481Z,26.05
2023-05-14T05:49:54.065Z,21.70
2023-05-14T05:52:20.923Z,22.38
2023-05-14T05:54:47.594Z,23.70
2023-05-14T05:57:14.337Z,23.38
2023-05-14T05:59:41.131Z,23.80
2023-05-14T06:02:07.989Z,22.38
2023-05-14T06:04:53.851Z,21.05
2023-05-14T06:07:21.107Z,21.23
2023-05-14T06:09:47.811Z,21.58
2023-05-14T06:12:14.526Z,20.58
2023-05-14T06:14:41.369Z,22.98
2023-05-14T06:17:16.214Z,19.75
2023-05-14T06:19:42.934Z,19.98
2023-05-14T06:22:09.653Z,20.23
2023-05-14T06:24:36.392Z,18.17
2023-05-14T06:27:03.093Z,18.13
2023-05-14T06:29:29.818Z,19.25
2023-05-14T06:32:01.324Z,18.17
2023-05-14T06:34:28.059Z,19.27
2023-05-14T06:36:54.786Z,19.77
2023-05-14T06:39:21.520Z,21.50
2023-05-14T06:41:48.266Z,18.95
2023-05-14T06:44:15.977Z,22.48
2023-05-14T06:46:42.732Z,22.02
2023-05-14T06:49:09.528Z,21.30
2023-05-14T06:51:36.284Z,18.73
2023-05-14T06:54:02.944Z,20.23
2023-05-14T06:56:29.648Z,19.63
2023-05-14T06:58:56.384Z,20.63
2023-05-14T07:01:23.131Z,19.77
2023-05-14T07:03:49.912Z,20.98
2023-05-14T07:06:17.991Z,21.73
2023-05-14T07:08:47.399Z,23.90
2023-05-14T07:11:14.509Z,20.02
2023-05-14T07:13:41.822Z,21.58
2023-05-14T07:16:11.950Z,20.77
2023-05-14T07:18:38.769Z,19.52
2023-05-14T07:21:06.591Z,17.40
2023-05-14T07:23:36.266Z,17.38
2023-05-14T07:26:03.425Z,18.10
2023-05-14T07:28:30.164Z,17.75
2023-05-14T07:30:56.899Z,18.80
2023-05-14T07:33:24.528Z,17.48
2023-05-14T07:35:51.946Z,16.23
2023-05-14T07:38:19.215Z,19.38
2023-05-14T07:40:46.016Z,17.20
2023-05-14T07:43:12.854Z,17.60
2023-05-14T07:45:39.765Z,15.65
2023-05-14T07:48:06.736Z,19.85
2023-05-14T07:50:33.494Z,15.45
2023-05-14T07:53:00.285Z,16.90
2023-05-14T07:55:26.996Z,15.20
2023-05-14T07:57:53.735Z,17.50
2023-05-14T08:00:20.711Z,17.45
2023-05-14T08:02:49.078Z,17.27
2023-05-14T08:05:16.674Z,18.30
2023-05-14T08:07:43.475Z,19.60
2023-05-14T08:10:10.621Z,19.85
2023-05-14T08:12:37.348Z,15.98
2023-05-14T08:15:04.511Z,16.05
2023-05-14T08:17:31.257Z,17.55
2023-05-14T08:19:57.972Z,17.92
2023-05-14T08:22:24.726Z,17.25
2023-05-14T08:24:51.393Z,17.85
2023-05-14T08:27:18.022Z,17.20
2023-05-14T08:29:59.023Z,18.83
2023-05-14T08:32:25.851Z,18.20
2023-05-14T08:34:52.684Z,16.33
2023-05-14T08:37:19.635Z,19.45
2023-05-14T08:39:46.312Z,16.77
2023-05-14T08:42:51.216Z,16.55
2023-05-14T08:45:25.723Z,17.25
2023-05-14T08:47:52.933Z,17.85
2023-05-14T08:50:22.633Z,16.80
2023-05-14T08:52:50.506Z,15.90
2023-05-14T08:55:17.291Z,15.27
2023-05-14T08:57:44.024Z,14.35
2023-05-14T09:00:11.920Z,14.60
2023-05-14T09:02:40.593Z,15.07
2023-05-14T09:05:09.246Z,13.70
2023-05-14T09:07:36.660Z,15.65
2023-05-14T09:10:04.108Z,13.00
2023-05-14T09:12:31.422Z,11.20
2023-05-14T09:14:58.193Z,12.80
2023-05-14T09:17:27.657Z,11.43
2023-05-14T09:19:54.619Z,11.82
2023-05-14T09:22:21.741Z,10.27
2023-05-14T09:25:03.542Z,9.80
2023-05-14T09:27:31.884Z,12.40
2023-05-14T09:30:09.772Z,13.00
2023-05-14T09:32:38.193Z,14.13
2023-05-14T09:35:17.475Z,14.02
2023-05-14T09:37:50.234Z,12.50
2023-05-14T09:40:18.202Z,12.70
2023-05-14T09:42:45.445Z,13.55
2023-05-14T09:45:12.823Z,13.20
2023-05-14T09:47:40.107Z,14.13
2023-05-14T09:50:07.952Z,12.82
2023-05-14T09:52:35.232Z,13.45
2023-05-14T09:55:02.411Z,12.88
2023-05-14T09:57:29.149Z,12.18
2023-05-14T09:59:55.979Z,11.43
2023-05-14T10:02:25.355Z,11.63
2023-05-14T10:04:58.820Z,14.00
2023-05-14T10:07:31.510Z,14.18
2023-05-14T10:10:02.000Z,12.00
2023-05-14T10:12:34.098Z,11.40
2023-05-14T10:15:06.887Z,13.50
2023-05-14T10:17:37.930Z,12.55
2023-05-14T10:20:09.220Z,11.70
2023-05-14T10:22:36.129Z,13.10
2023-05-14T10:25:04.001Z,14.07
2023-05-14T10:27:31.303Z,15.20
2023-05-14T10:29:58.392Z,12.50
2023-05-14T10:32:26.479Z,12.07
2023-05-14T10:34:54.077Z,12.18
2023-05-14T10:37:26.372Z,13.48
2023-05-14T10:39:57.608Z,14.25
2023-05-14T10:42:35.941Z,13.80
2023-05-14T10:45:07.512Z,11.15
2023-05-14T10:47:48.872Z,11.43
2023-05-14T10:50:17.418Z,11.27
2023-05-14T10:52:45.538Z,11.85
2023-05-14T10:55:16.902Z,10.73
2023-05-14T10:57:46.987Z,12.05
2023-05-14T11:00:14.817Z,12.50
2023-05-14T11:02:45.778Z,11.52
2023-05-14T11:05:16.056Z,10.88
2023-05-14T11:07:48.757Z,11.75
2023-05-14T11:10:18.428Z,12.80
2023-05-14T11:12:46.793Z,12.20
2023-05-14T11:15:16.062Z,13.00
2023-05-14T11:17:44.206Z,10.65
2023-05-14T11:20:12.043Z,11.45
2023-05-14T11:22:40.786Z,10.90
2023-05-14T11:25:08.779Z,11.57
2023-05-14T11:27:38.645Z,9.88
2023-05-14T11:30:06.622Z,8.25
2023-05-14T11:32:33.908Z,8.65
2023-05-14T11:35:00.837Z,8.18
2023-05-14T11:37:27.550Z,9.30
2023-05-14T11:39:59.876Z,9.35
2023-05-14T11:42:26.739Z,6.80
2023-05-14T11:44:56.673Z,6.80
2023-05-14T11:47:23.520Z,6.47
2023-05-14T11:49:50.313Z,5.50
2023-05-14T11:52:19.626Z,6.47
2023-05-14T11:54:47.028Z,6.20
2023-05-14T11:57:22.406Z,7.00
2023-05-14T11:59:55.964Z,6.93
2023-05-14T12:02:23.090Z,6.28
2023-05-14T12:04:52.136Z,6.57
2023-05-14T12:07:19.196Z,6.55
2023-05-14T12:09:50.644Z,5.78
2023-05-14T12:12:22.267Z,6.15
2023-05-14T12:14:50.632Z,4.93
2023-05-14T12:17:17.424Z,5.43
2023-05-14T12:19:45.869Z,5.63
2023-05-14T12:22:15.525Z,6.10
2023-05-14T12:24:43.700Z,5.22
2023-05-14T12:27:15.647Z,6.35
2023-05-14T12:29:43.453Z,4.32
2023-05-14T12:32:11.057Z,5.75
2023-05-14T12:34:38.566Z,8.95
2023-05-14T12:37:06.604Z,5.90
2023-05-14T12:39:34.403Z,5.30
2023-05-14T12:42:01.616Z,4.75
2023-05-14T12:44:33.367Z,5.82
2023-05-14T12:47:00.176Z,6.75
2023-05-14T12:49:26.965Z,6.75
2023-05-14T12:52:07.814Z,5.05
2023-05-14T12:54:43.390Z,5.25
2023-05-14T12:57:10.335Z,4.82
2023-05-14T12:59:37.116Z,5.07
2023-05-14T13:02:03.830Z,5.03
2023-05-14T13:04:30.632Z,5.75
2023-05-14T13:06:57.418Z,5.32
2023-05-14T13:09:24.138Z,5.10
2023-05-14T13:11:51.126Z,6.82
2023-05-14T13:14:18.997Z,5.88
2023-05-14T13:16:47.052Z,4.88
2023-05-14T13:19:13.870Z,4.57
2023-05-14T13:21:40.700Z,4.82
2023-05-14T13:24:07.572Z,3.55
2023-05-14T13:26:34.316Z,4.13
2023-05-14T13:29:01.061Z,3.45
2023-05-14T13:31:37.042Z,3.17
2023-05-14T13:34:04.233Z,3.30
2023-05-14T13:36:42.239Z,3.20
2023-05-14T13:39:10.796Z,3.28
2023-05-14T13:41:46.671Z,3.35
2023-05-14T13:44:13.410Z,3.88
2023-05-14T13:46:40.250Z,3.25
2023-05-14T13:49:07.011Z,3.45
2023-05-14T13:51:33.660Z,3.22
2023-05-14T13:54:00.368Z,3.10
2023-05-14T13:56:27.089Z,4.38
2023-05-14T13:58:54.093Z,3.78
2023-05-14T14:01:20.961Z,4.55
2023-05-14T14:03:48.712Z,3.10
2023-05-14T14:06:15.395Z,3.70
2023-05-14T14:08:42.206Z,3.50
2023-05-14T14:11:08.965Z,3.53
2023-05-14T14:13:36.440Z,3.80
2023-05-14T14:16:03.603Z,7.95
2023-05-14T14:18:30.365Z,5.28
2023-05-14T14:20:57.532Z,7.32
2023-05-14T14:23:24.322Z,11.65
2023-05-14T14:25:50.982Z,15.00
2023-05-14T14:28:17.774Z,8.23
2023-05-14T14:31:02.401Z,6.15
2023-05-14T14:33:29.101Z,4.35
2023-05-14T14:35:55.880Z,4.50
2023-05-14T14:38:22.570Z,3.88
2023-05-14T14:40:49.695Z,4.82
2023-05-14T14:43:16.644Z,5.72
2023-05-14T14:45:46.845Z,4.82
2023-05-14T14:48:25.882Z,2.30
2023-05-14T14:50:53.477Z,2.92
2023-05-14T14:53:23.600Z,3.58
2023-05-14T14:55:51.084Z,4.63
2023-05-14T14:58:19.439Z,4.72
2023-05-14T15:00:46.491Z,4.32
2023-05-14T15:03:15.013Z,7.22
2023-05-14T15:05:41.958Z,4.80
2023-05-14T15:08:08.719Z,6.45
2023-05-14T15:10:37.988Z,6.03
2023-05-14T15:13:08.957Z,6.20
2023-05-14T15:15:36.127Z,5.30
2023-05-14T15:18:04.207Z,4.55
2023-05-14T15:20:30.967Z,3.55
2023-05-14T15:22:57.699Z,3.45
2023-05-14T15:25:25.116Z,4.40
2023-05-14T15:28:09.606Z,3.63
2023-05-14T15:30:36.367Z,3.50
2023-05-14T15:33:03.172Z,4.55
2023-05-14T15:35:29.985Z,4.00
2023-05-14T15:37:59.576Z,3.88
2023-05-14T15:40:27.946Z,2.97
2023-05-14T15:42:54.715Z,2.30
2023-05-14T15:45:21.625Z,2.20
2023-05-14T15:47:48.424Z,2.50
2023-05-14T15:50:15.134Z,2.63
2023-05-14T15:52:41.854Z,8.00
2023-05-14T15:55:09.218Z,2.75
2023-05-14T15:57:35.970Z,3.47
2023-05-14T16:00:10.052Z,4.65
2023-05-14T16:02:37.975Z,3.53
2023-05-14T16:05:05.018Z,4.53
2023-05-14T16:07:31.748Z,2.90
2023-05-14T16:09:58.507Z,4.13
2023-05-14T16:12:25.402Z,2.85
2023-05-14T16:14:52.280Z,3.28
2023-05-14T16:17:19.200Z,2.85
2023-05-14T16:19:45.994Z,4.63
2023-05-14T16:22:12.725Z,5.22
2023-05-14T16:24:39.491Z,2.80
2023-05-14T16:27:13.141Z,3.60
2023-05-14T16:29:39.882Z,2.43
2023-05-14T16:32:06.758Z,2.22
2023-05-14T16:34:33.514Z,2.42
2023-05-14T16:37:00.272Z,4.50
2023-05-14T16:39:27.072Z,2.30
2023-05-14T16:41:53.764Z,3.20
2023-05-14T16:44:20.673Z,3.55
2023-05-14T16:46:48.115Z,3.38
2023-05-14T16:49:15.016Z,3.22
2023-05-14T16:51:43.234Z,4.30
2023-05-14T16:54:10.164Z,4.20
2023-05-14T16:56:37.050Z,3.35
2023-05-14T16:59:03.772Z,4.95
2023-05-14T17:01:31.060Z,3.33
2023-05-14T17:03:57.776Z,3.65
2023-05-14T17:06:24.555Z,5.35
2023-05-14T17:08:51.246Z,3.40
2023-05-14T17:11:17.942Z,4.68
2023-05-14T17:13:44.612Z,5.75
2023-05-14T17:16:11.596Z,4.50
2023-05-14T17:18:38.777Z,7.93
2023-05-14T17:21:07.538Z,4.93
2023-05-14T17:23:34.423Z,4.80
2023-05-14T17:26:01.108Z,6.43
2023-05-14T17:28:29.768Z,7.70
2023-05-14T17:30:57.263Z,5.82
2023-05-14T17:33:24.223Z,7.65
2023-05-14T17:35:50.968Z,11.35
2023-05-14T17:38:17.683Z,9.38
2023-05-14T17:40:44.372Z,9.80
2023-05-14T17:43:19.259Z,6.15
2023-05-14T17:45:54.026Z,8.32
2023-05-14T17:48:22.563Z,5.05
2023-05-14T17:50:49.465Z,4.97
2023-05-14T17:53:16.152Z,5.25
2023-05-14T17:55:45.889Z,6.78
2023-05-14T17:58:15.216Z,5.30
2023-05-14T18:00:42.570Z,5.38
2023-05-14T18:03:10.332Z,7.90
2023-05-14T18:05:37.372Z,6.97
2023-05-14T18:08:05.315Z,5.43
2023-05-14T18:10:32.032Z,5.28
2023-05-14T18:12:59.086Z,6.90
2023-05-14T18:15:27.326Z,7.00
2023-05-14T18:17:54.462Z,7.50
2023-05-14T18:20:21.428Z,7.13
2023-05-14T18:22:48.274Z,8.35
2023-05-14T18:25:28.540Z,6.75
2023-05-14T18:27:55.274Z,6.50
2023-05-14T18:30:22.008Z,9.27
2023-05-14T18:32:48.723Z,7.40
2023-05-14T18:35:30.019Z,6.70
2023-05-14T18:37:56.762Z,5.70
2023-05-14T18:40:23.474Z,5.80
2023-05-14T18:42:50.425Z,6.35
2023-05-14T18:45:17.130Z,5.93
2023-05-14T18:47:44.031Z,6.25
2023-05-14T18:50:11.116Z,6.13
2023-05-14T18:52:38.237Z,6.47
2023-05-14T18:55:05.448Z,5.22
2023-05-14T18:57:32.965Z,6.13
2023-05-14T19:00:04.003Z,5.85
2023-05-14T19:02:30.909Z,4.68
2023-05-14T19:04:57.685Z,4.60
2023-05-14T19:07:24.495Z,5.47
2023-05-14T19:09:51.512Z,4.68
2023-05-14T19:12:18.211Z,5.65
2023-05-14T19:14:44.980Z,5.40
2023-05-14T19:17:11.842Z,5.20
2023-05-14T19:19:39.402Z,4.55
2023-05-14T19:22:06.769Z,4.82
2023-05-14T19:24:33.621Z,4.15
2023-05-14T19:27:00.592Z,4.68
2023-05-14T19:29:27.302Z,4.32
2023-05-14T19:31:57.237Z,5.03
2023-05-14T19:34:28.208Z,4.18
2023-05-14T19:36:54.982Z,4.40
2023-05-14T19:39:22.720Z,4.25
2023-05-14T19:41:49.443Z,6.68
2023-05-14T19:44:16.110Z,4.85
2023-05-14T19:46:42.900Z,7.13
2023-05-14T19:49:14.701Z,5.35
2023-05-14T19:51:41.427Z,4.20
2023-05-14T19:54:21.696Z,3.90
2023-05-14T19:56:48.504Z,4.25
2023-05-14T19:59:15.263Z,3.53
2023-05-14T20:01:42.123Z,5.55
2023-05-14T20:04:08.981Z,4.63
2023-05-14T20:06:35.757Z,3.90
2023-05-14T20:09:02.553Z,3.67
2023-05-14T20:11:29.310Z,4.55
2023-05-14T20:13:56.052Z,4.32
2023-05-14T20:16:23.472Z,3.67
2023-05-14T20:18:50.384Z,4.28
2023-05-14T20:21:17.114Z,3.67
2023-05-14T20:23:43.812Z,4.53
2023-05-14T20:26:10.565Z,4.82
2023-05-14T20:28:37.321Z,5.30
2023-05-14T20:31:04.117Z,6.10
2023-05-14T20:33:31.040Z,5.47
2023-05-14T20:35:57.823Z,5.43
2023-05-14T20:38:25.743Z,8.90
2023-05-14T20:40:52.501Z,4.15
2023-05-14T20:43:19.200Z,4.78
2023-05-14T20:45:46.141Z,4.35
2023-05-14T20:48:16.229Z,4.93
2023-05-14T20:50:43.449Z,9.07
2023-05-14T20:53:10.101Z,7.15
2023-05-14T20:55:36.786Z,5.70
2023-05-14T20:58:03.479Z,4.22
2023-05-14T21:00:30.196Z,3.58
2023-05-14T21:02:57.127Z,4.63
2023-05-14T21:05:24.080Z,5.45
2023-05-14T21:07:51.001Z,7.45
2023-05-14T21:10:17.734Z,12.30
2023-05-14T21:12:44.952Z,7.95
2023-05-14T21:15:11.993Z,7.85
2023-05-14T21:17:38.757Z,9.65
2023-05-14T21:20:06.038Z,8.20
2023-05-14T21:22:32.997Z,11.73
2023-05-14T21:24:59.718Z,7.03
2023-05-14T21:27:26.646Z,8.10
2023-05-14T21:29:53.387Z,7.40
2023-05-14T21:32:22.155Z,10.00
2023-05-14T21:34:49.087Z,7.38
2023-05-14T21:37:15.869Z,8.02
2023-05-14T21:39:42.650Z,9.93
2023-05-14T21:42:09.731Z,8.20
2023-05-14T21:44:36.438Z,7.88
2023-05-14T21:47:03.897Z,6.72
2023-05-14T21:49:30.808Z,6.78
2023-05-14T21:51:57.537Z,6.85
2023-05-14T21:54:24.328Z,6.78
2023-05-14T21:56:51.275Z,6.05
2023-05-14T21:59:17.975Z,6.90
2023-05-14T22:04:14.412Z,8.90
2023-05-14T22:06:41.330Z,6.90
2023-05-14T22:09:10.958Z,6.38
2023-05-14T22:11:37.689Z,6.70
2023-05-14T22:14:04.374Z,10.60
2023-05-14T22:16:38.307Z,6.72
2023-05-14T22:19:06.542Z,7.13
2023-05-14T22:21:33.859Z,7.30
2023-05-14T22:24:00.587Z,7.38
2023-05-14T22:26:27.351Z,9.95
2023-05-14T22:28:54.072Z,7.35
2023-05-14T22:31:21.055Z,7.53
2023-05-14T22:33:47.897Z,8.20
2023-05-14T22:36:14.608Z,7.93
2023-05-14T22:38:43.763Z,11.73
2023-05-14T22:41:10.935Z,9.50
2023-05-14T22:43:37.709Z,8.63
2023-05-14T22:46:04.640Z,7.60
2023-05-14T22:48:31.357Z,7.82
2023-05-14T22:50:58.071Z,9.57
2023-05-14T22:53:25.379Z,9.25
2023-05-14T22:55:52.274Z,8.75
2023-05-14T22:58:19.045Z,8.20
2023-05-14T23:00:45.818Z,9.93
2023-05-14T23:03:12.522Z,7.60
2023-05-14T23:05:39.217Z,8.55
2023-05-14T23:08:06.379Z,7.07
2023-05-14T23:10:35.559Z,7.38
2023-05-14T23:13:02.352Z,6.68
2023-05-14T23:15:29.081Z,7.60
2023-05-14T23:18:05.252Z,8.10
2023-05-14T23:20:32.024Z,7.28
2023-05-14T23:22:58.779Z,8.05
2023-05-14T23:25:25.840Z,7.88
2023-05-14T23:27:52.716Z,7.70
2023-05-14T23:30:19.605Z,7.50
2023-05-14T23:32:46.371Z,7.95
2023-05-14T23:35:13.172Z,9.05
2023-05-14T23:37:46.891Z,9.95
2023-05-14T23:40:13.777Z,9.75
2023-05-14T23:42:40.544Z,9.40
2023-05-14T23:45:07.879Z,7.47
2023-05-14T23:47:34.963Z,12.02
2023-05-14T23:50:01.904Z,8.32
2023-05-14T23:52:28.703Z,8.48
2023-05-14T23:54:55.423Z,8.35
2023-05-14T23:57:22.220Z,8.35
2023-05-14T23:59:48.963Z,8.40
